createdAt,value
2018-08-25T00:00:29.134Z,18.91
2018-08-25T00:01:42.962Z,18.81
2018-08-25T00:02:57.289Z,18.73
2018-08-25T00:04:11.386Z,18.74
2018-08-25T00:05:25.656Z,18.79
2018-08-25T00:06:39.944Z,18.7
2018-08-25T00:07:54.052Z,18.64
2018-08-25T00:09:08.119Z,18.7
2018-08-25T00:10:21.945Z,18.73
2018-08-25T00:11:35.959Z,18.76
2018-08-25T00:12:49.658Z,18.82
2018-08-25T00:14:03.263Z,18.76
2018-08-25T00:15:17.422Z,18.61
2018-08-25T00:16:31.000Z,18.6
2018-08-25T00:17:45.304Z,18.52
2018-08-25T00:18:59.319Z,18.36
2018-08-25T00:20:13.376Z,18.34
2018-08-25T00:21:27.592Z,18.18
2018-08-25T00:22:41.860Z,18.23
2018-08-25T00:23:55.892Z,18.28
2018-08-25T00:25:09.491Z,18.16
2018-08-25T00:26:23.902Z,18.16
2018-08-25T00:27:37.958Z,18.09
2018-08-25T00:28:51.341Z,18.11
2018-08-25T00:30:05.390Z,18.03
2018-08-25T00:31:34.094Z,18.09
2018-08-25T00:32:48.582Z,18.08
2018-08-25T00:34:02.812Z,17.97
2018-08-25T00:35:17.428Z,18
2018-08-25T00:36:31.239Z,17.97
2018-08-25T00:37:45.832Z,18
2018-08-25T00:38:59.883Z,18.08
2018-08-25T00:40:13.961Z,18.06
2018-08-25T00:41:27.761Z,18.03
2018-08-25T00:42:42.024Z,18.13
2018-08-25T00:43:55.351Z,17.97
2018-08-25T00:45:09.705Z,17.95
2018-08-25T00:46:23.542Z,17.91
2018-08-25T00:47:37.635Z,17.9
2018-08-25T00:48:51.773Z,17.93
2018-08-25T00:50:05.255Z,17.87
2018-08-25T00:51:19.528Z,17.84
2018-08-25T00:52:33.571Z,17.93
2018-08-25T00:53:47.604Z,17.94
2018-08-25T00:55:00.954Z,17.87
2018-08-25T00:56:14.767Z,17.88
2018-08-25T00:57:28.949Z,17.91
2018-08-25T00:58:43.416Z,17.76
2018-08-25T00:59:56.758Z,17.6
2018-08-25T01:01:10.406Z,17.69
2018-08-25T01:02:24.237Z,17.5
2018-08-25T01:03:38.310Z,17.57
2018-08-25T01:05:06.993Z,17.59
2018-08-25T01:06:21.268Z,17.66
2018-08-25T01:07:35.331Z,17.69
2018-08-25T01:08:48.875Z,17.53
2018-08-25T01:10:03.119Z,17.42
2018-08-25T01:11:17.158Z,17.42
2018-08-25T01:12:31.182Z,17.46
2018-08-25T01:13:45.521Z,17.44
2018-08-25T01:15:00.048Z,17.5
2018-08-25T01:16:14.317Z,17.56
2018-08-25T01:17:29.580Z,17.56
2018-08-25T01:18:45.134Z,17.59
2018-08-25T01:19:59.438Z,17.57
2018-08-25T01:21:13.513Z,17.72
2018-08-25T01:22:27.359Z,17.57
2018-08-25T01:23:41.208Z,17.69
2018-08-25T01:24:55.034Z,17.56
2018-08-25T01:26:09.333Z,17.68
2018-08-25T01:27:23.603Z,17.63
2018-08-25T01:28:37.661Z,17.49
2018-08-25T01:29:51.711Z,17.44
2018-08-25T01:31:05.398Z,17.49
2018-08-25T01:32:19.691Z,17.41
2018-08-25T01:33:33.735Z,17.49
2018-08-25T01:34:47.577Z,17.47
2018-08-25T01:36:01.851Z,17.35
2018-08-25T01:37:15.675Z,17.37
2018-08-25T01:38:29.939Z,17.35
2018-08-25T01:39:44.505Z,17.47
2018-08-25T01:40:58.073Z,17.52
2018-08-25T01:42:12.361Z,17.44
2018-08-25T01:43:25.997Z,17.5
2018-08-25T01:44:40.305Z,17.52
2018-08-25T01:45:54.130Z,17.57
2018-08-25T01:47:08.448Z,17.54
2018-08-25T01:48:22.513Z,17.68
2018-08-25T01:49:36.312Z,17.6
2018-08-25T01:50:50.606Z,17.66
2018-08-25T01:52:04.314Z,17.66
2018-08-25T01:53:17.901Z,17.68
2018-08-25T01:54:31.970Z,17.66
2018-08-25T01:55:45.595Z,17.59
2018-08-25T01:57:00.121Z,17.69
2018-08-25T01:58:14.387Z,17.47
2018-08-25T01:59:27.755Z,17.46
2018-08-25T02:00:41.838Z,17.38
2018-08-25T02:01:55.920Z,17.32
2018-08-25T02:03:09.503Z,17.32
2018-08-25T02:04:23.586Z,17.37
2018-08-25T02:05:37.915Z,17.38
2018-08-25T02:06:51.970Z,17.41
2018-08-25T02:08:06.066Z,17.34
2018-08-25T02:09:19.621Z,17.24
2018-08-25T02:10:33.671Z,17.22
2018-08-25T02:11:47.487Z,17.02
2018-08-25T02:13:01.076Z,17.05
2018-08-25T02:14:15.115Z,17.04
2018-08-25T02:15:29.173Z,16.87
2018-08-25T02:16:43.345Z,16.84
2018-08-25T02:17:57.246Z,16.83
2018-08-25T02:19:11.079Z,16.83
2018-08-25T02:20:25.160Z,16.74
2018-08-25T02:21:38.738Z,16.77
2018-08-25T02:22:52.522Z,16.69
2018-08-25T02:24:06.356Z,16.65
2018-08-25T02:25:20.647Z,16.61
2018-08-25T02:26:34.753Z,16.58
2018-08-25T02:27:49.018Z,16.61
2018-08-25T02:29:03.093Z,16.61
2018-08-25T02:30:16.691Z,16.58
2018-08-25T02:31:30.508Z,16.49
2018-08-25T02:32:44.580Z,16.49
2018-08-25T02:33:58.425Z,16.34
2018-08-25T02:35:12.741Z,16.39
2018-08-25T02:36:26.559Z,16.29
2018-08-25T02:37:40.655Z,16.26
2018-08-25T02:38:54.465Z,16.32
2018-08-25T02:40:08.535Z,16.18
2018-08-25T02:41:23.138Z,16.24
2018-08-25T02:42:37.183Z,16.28
2018-08-25T02:43:51.197Z,16.37
2018-08-25T02:45:05.440Z,16.32
2018-08-25T02:46:19.274Z,16.26
2018-08-25T02:47:33.312Z,16.34
2018-08-25T02:48:46.884Z,16.24
2018-08-25T02:50:00.685Z,16.17
2018-08-25T02:51:14.505Z,16.28
2018-08-25T02:52:28.352Z,16.22
2018-08-25T02:53:41.931Z,16.28
2018-08-25T02:54:56.187Z,16.17
2018-08-25T02:56:10.461Z,16.21
2018-08-25T02:57:24.293Z,16.13
2018-08-25T02:58:38.601Z,16.17
2018-08-25T02:59:52.670Z,16.12
2018-08-25T03:01:06.488Z,16.13
2018-08-25T03:02:19.840Z,16.13
2018-08-25T03:03:33.447Z,16.08
2018-08-25T03:04:47.138Z,16.08
2018-08-25T03:06:00.951Z,16.05
2018-08-25T03:07:14.999Z,16
2018-08-25T03:08:28.834Z,15.83
2018-08-25T03:09:42.895Z,15.9
2018-08-25T03:10:56.456Z,15.8
2018-08-25T03:12:10.906Z,15.94
2018-08-25T03:13:25.169Z,15.87
2018-08-25T03:14:39.011Z,15.88
2018-08-25T03:15:52.864Z,15.98
2018-08-25T03:17:06.492Z,15.78
2018-08-25T03:18:20.528Z,15.87
2018-08-25T03:19:34.343Z,15.87
2018-08-25T03:20:47.949Z,15.99
2018-08-25T03:22:02.247Z,16.02
2018-08-25T03:23:16.751Z,16.03
2018-08-25T03:24:30.565Z,15.87
2018-08-25T03:25:44.363Z,15.87
2018-08-25T03:26:58.636Z,15.98
2018-08-25T03:28:12.791Z,16.06
2018-08-25T03:29:26.597Z,16.03
2018-08-25T03:30:40.666Z,16.02
2018-08-25T03:31:54.724Z,16.09
2018-08-25T03:33:08.313Z,16.06
2018-08-25T03:34:22.648Z,16.13
2018-08-25T03:35:36.676Z,16.13
2018-08-25T03:36:50.722Z,16.24
2018-08-25T03:38:04.531Z,16.1
2018-08-25T03:39:18.812Z,16.1
2018-08-25T03:40:32.948Z,16.03
2018-08-25T03:41:47.198Z,16.05
2018-08-25T03:43:00.773Z,16.08
2018-08-25T03:44:14.874Z,16.08
2018-08-25T03:45:29.405Z,16.05
2018-08-25T03:46:43.224Z,16.08
2018-08-25T03:47:57.075Z,16.02
2018-08-25T03:49:10.641Z,15.88
2018-08-25T03:50:23.966Z,15.98
2018-08-25T03:51:38.143Z,15.84
2018-08-25T03:52:52.593Z,15.96
2018-08-25T03:54:06.390Z,15.92
2018-08-25T03:55:20.623Z,15.99
2018-08-25T03:56:34.491Z,15.83
2018-08-25T03:57:48.085Z,15.78
2018-08-25T03:59:01.882Z,15.99
2018-08-25T04:00:16.262Z,15.78
2018-08-25T04:01:30.871Z,15.81
2018-08-25T04:02:45.171Z,15.87
2018-08-25T04:03:59.252Z,15.88
2018-08-25T04:05:13.533Z,15.92
2018-08-25T04:06:27.795Z,15.99
2018-08-25T04:07:42.069Z,15.88
2018-08-25T04:08:56.343Z,15.76
2018-08-25T04:10:10.839Z,15.87
2018-08-25T04:11:39.349Z,15.9
2018-08-25T04:12:53.591Z,15.87
2018-08-25T04:14:07.622Z,15.87
2018-08-25T04:15:21.443Z,15.85
2018-08-25T04:16:35.259Z,15.8
2018-08-25T04:17:49.784Z,15.66
2018-08-25T04:19:04.037Z,15.75
2018-08-25T04:20:17.609Z,15.76
2018-08-25T04:21:31.530Z,15.78
2018-08-25T04:22:46.053Z,15.76
2018-08-25T04:24:00.015Z,15.8
2018-08-25T04:25:13.841Z,15.76
2018-08-25T04:26:28.126Z,15.83
2018-08-25T04:27:41.981Z,15.7
2018-08-25T04:28:56.046Z,15.67
2018-08-25T04:30:09.616Z,15.75
2018-08-25T04:31:23.663Z,15.75
2018-08-25T04:32:37.495Z,15.83
2018-08-25T04:33:51.551Z,15.8
2018-08-25T04:35:05.887Z,15.83
2018-08-25T04:36:19.526Z,15.84
2018-08-25T04:37:33.827Z,16
2018-08-25T04:38:47.435Z,16
2018-08-25T04:40:01.500Z,15.98
2018-08-25T04:41:15.352Z,15.75
2018-08-25T04:42:30.312Z,15.99
2018-08-25T04:43:44.459Z,15.88
2018-08-25T04:44:58.622Z,15.98
2018-08-25T04:46:12.900Z,15.92
2018-08-25T04:47:27.229Z,16
2018-08-25T04:48:41.491Z,15.92
2018-08-25T04:49:55.536Z,15.99
2018-08-25T04:51:10.047Z,15.99
2018-08-25T04:52:24.201Z,16
2018-08-25T04:53:37.994Z,16.03
2018-08-25T04:54:51.340Z,16.1
2018-08-25T04:56:05.433Z,16.21
2018-08-25T04:57:19.511Z,16.24
2018-08-25T04:58:33.521Z,16.16
2018-08-25T04:59:47.807Z,16.09
2018-08-25T05:01:02.095Z,16.18
2018-08-25T05:02:16.184Z,16.18
2018-08-25T05:03:30.236Z,16.12
2018-08-25T05:04:44.287Z,16.16
2018-08-25T05:05:58.546Z,16.17
2018-08-25T05:07:12.624Z,16.12
2018-08-25T05:08:27.191Z,16.13
2018-08-25T05:09:41.021Z,16.25
2018-08-25T05:10:55.303Z,16.21
2018-08-25T05:12:09.160Z,16.25
2018-08-25T05:13:23.415Z,16.1
2018-08-25T05:14:37.330Z,16.16
2018-08-25T05:15:50.889Z,16.13
2018-08-25T05:17:04.928Z,16.1
2018-08-25T05:18:19.220Z,16.09
2018-08-25T05:19:33.517Z,16.09
2018-08-25T05:20:47.801Z,16.02
2018-08-25T05:22:02.107Z,16.05
2018-08-25T05:23:16.975Z,16.21
2018-08-25T05:24:31.039Z,16.21
2018-08-25T05:25:44.858Z,16.25
2018-08-25T05:26:58.946Z,16.25
2018-08-25T05:28:12.997Z,16.24
2018-08-25T05:29:27.430Z,16.22
2018-08-25T05:30:41.701Z,16.16
2018-08-25T05:31:56.044Z,16.22
2018-08-25T05:33:09.893Z,16.25
2018-08-25T05:34:24.217Z,16.28
2018-08-25T05:35:38.036Z,16.32
2018-08-25T05:36:52.085Z,16.32
2018-08-25T05:38:05.663Z,16.21
2018-08-25T05:39:19.993Z,16.29
2018-08-25T05:40:33.839Z,16.36
2018-08-25T05:41:47.780Z,16.31
2018-08-25T05:43:02.088Z,16.37
2018-08-25T05:44:16.365Z,16.4
2018-08-25T05:45:30.997Z,16.43
2018-08-25T05:46:45.029Z,16.39
2018-08-25T05:47:59.873Z,16.37
2018-08-25T05:49:14.154Z,16.4
2018-08-25T05:50:27.958Z,16.43
2018-08-25T05:51:42.002Z,16.36
2018-08-25T05:52:55.827Z,16.37
2018-08-25T05:54:09.416Z,16.34
2018-08-25T05:55:23.266Z,16.39
2018-08-25T05:56:37.565Z,16.31
2018-08-25T05:57:51.293Z,16.4
2018-08-25T05:59:05.135Z,16.44
2018-08-25T06:00:19.462Z,16.46
2018-08-25T06:01:33.363Z,16.46
2018-08-25T06:02:46.972Z,16.43
2018-08-25T06:04:01.101Z,16.41
2018-08-25T06:05:15.242Z,16.4
2018-08-25T06:06:29.215Z,16.46
2018-08-25T06:07:43.272Z,16.49
2018-08-25T06:08:57.383Z,16.5
2018-08-25T06:10:11.199Z,16.5
2018-08-25T06:11:24.793Z,16.46
2018-08-25T06:12:38.415Z,16.51
2018-08-25T06:13:52.467Z,16.61
2018-08-25T06:15:06.287Z,16.62
2018-08-25T06:16:20.511Z,16.44
2018-08-25T06:17:35.224Z,16.49
2018-08-25T06:18:49.603Z,16.51
2018-08-25T06:20:04.141Z,16.49
2018-08-25T06:21:17.780Z,16.54
2018-08-25T06:22:31.612Z,16.54
2018-08-25T06:23:46.142Z,16.41
2018-08-25T06:25:00.656Z,16.49
2018-08-25T06:26:14.980Z,16.36
2018-08-25T06:27:28.358Z,16.29
2018-08-25T06:28:42.449Z,16.36
2018-08-25T06:29:56.300Z,16.13
2018-08-25T06:31:09.937Z,16.18
2018-08-25T06:32:24.239Z,16.21
2018-08-25T06:33:38.149Z,16.18
2018-08-25T06:34:51.978Z,16.16
2018-08-25T06:36:06.694Z,16.22
2018-08-25T06:37:21.241Z,16.28
2018-08-25T06:38:34.928Z,16.17
2018-08-25T06:39:48.787Z,16.18
2018-08-25T06:41:02.964Z,16.21
2018-08-25T06:42:16.618Z,15.94
2018-08-25T06:43:31.069Z,15.96
2018-08-25T06:44:44.989Z,15.94
2018-08-25T06:45:58.979Z,15.96
2018-08-25T06:47:13.125Z,15.96
2018-08-25T06:48:27.193Z,15.98
2018-08-25T06:49:41.275Z,16.05
2018-08-25T06:50:55.143Z,16.13
2018-08-25T06:52:09.666Z,16
2018-08-25T06:53:23.870Z,16.13
2018-08-25T06:54:37.698Z,16.18
2018-08-25T06:55:51.432Z,16.18
2018-08-25T06:57:05.708Z,16.06
2018-08-25T06:58:19.737Z,16.06
2018-08-25T06:59:33.928Z,16.13
2018-08-25T07:00:48.251Z,16.13
2018-08-25T07:02:02.131Z,16.09
2018-08-25T07:03:16.393Z,16.1
2018-08-25T07:04:30.451Z,16.16
2018-08-25T07:05:44.762Z,16.1
2018-08-25T07:06:58.653Z,16.03
2018-08-25T07:08:12.955Z,15.91
2018-08-25T07:09:27.034Z,15.91
2018-08-25T07:10:40.461Z,15.98
2018-08-25T07:11:54.995Z,16.05
2018-08-25T07:13:08.733Z,16.06
2018-08-25T07:14:22.099Z,16.03
2018-08-25T07:15:35.943Z,16
2018-08-25T07:16:50.221Z,16.05
2018-08-25T07:18:04.051Z,15.92
2018-08-25T07:19:18.581Z,15.9
2018-08-25T07:20:32.658Z,15.9
2018-08-25T07:21:47.222Z,16.09
2018-08-25T07:23:00.830Z,16.25
2018-08-25T07:24:15.003Z,16.28
2018-08-25T07:25:29.259Z,16.29
2018-08-25T07:26:43.310Z,16.29
2018-08-25T07:27:57.376Z,16.29
2018-08-25T07:29:10.970Z,16.16
2018-08-25T07:30:25.034Z,16.13
2018-08-25T07:31:39.666Z,16.22
2018-08-25T07:32:53.746Z,16.22
2018-08-25T07:34:07.666Z,16.26
2018-08-25T07:35:21.505Z,16.12
2018-08-25T07:36:50.221Z,16.08
2018-08-25T07:38:04.556Z,16.16
2018-08-25T07:39:18.364Z,16.03
2018-08-25T07:40:32.258Z,16.16
2018-08-25T07:41:46.549Z,16.18
2018-08-25T07:43:00.445Z,16.16
2018-08-25T07:44:14.321Z,16.24
2018-08-25T07:45:28.968Z,16.17
2018-08-25T07:46:42.789Z,16.21
2018-08-25T07:47:56.823Z,16.37
2018-08-25T07:49:10.875Z,16.44
2018-08-25T07:50:24.939Z,16.58
2018-08-25T07:51:39.258Z,16.5
2018-08-25T07:52:53.302Z,16.41
2018-08-25T07:54:07.144Z,16.55
2018-08-25T07:55:22.007Z,16.61
2018-08-25T07:56:35.611Z,16.84
2018-08-25T07:57:49.469Z,16.92
2018-08-25T07:59:03.608Z,16.89
2018-08-25T08:00:17.467Z,17.12
2018-08-25T08:01:31.797Z,17.19
2018-08-25T08:02:45.951Z,17.28
2018-08-25T08:04:00.049Z,17.37
2018-08-25T08:05:13.461Z,17.47
2018-08-25T08:06:27.756Z,17.32
2018-08-25T08:07:41.133Z,17.59
2018-08-25T08:08:55.078Z,17.6
2018-08-25T08:10:09.653Z,17.73
2018-08-25T08:11:23.497Z,17.82
2018-08-25T08:12:37.589Z,17.75
2018-08-25T08:13:51.955Z,17.75
2018-08-25T08:15:05.830Z,17.57
2018-08-25T08:16:19.610Z,17.57
2018-08-25T08:17:33.706Z,17.47
2018-08-25T08:18:47.809Z,17.5
2018-08-25T08:20:02.147Z,17.6
2018-08-25T08:21:16.478Z,17.91
2018-08-25T08:22:30.556Z,17.91
2018-08-25T08:23:44.875Z,17.9
2018-08-25T08:24:58.580Z,18.09
2018-08-25T08:26:12.909Z,18.21
2018-08-25T08:27:26.980Z,18.21
2018-08-25T08:28:40.787Z,18.26
2018-08-25T08:29:54.861Z,18.24
2018-08-25T08:31:08.490Z,18.18
2018-08-25T08:32:23.292Z,18.43
2018-08-25T08:33:37.327Z,18.57
2018-08-25T08:34:51.499Z,18.3
2018-08-25T08:36:05.100Z,18.28
2018-08-25T08:37:19.188Z,18.46
2018-08-25T08:38:33.524Z,18.57
2018-08-25T08:39:47.768Z,18.57
2018-08-25T08:41:02.171Z,18.53
2018-08-25T08:42:16.538Z,18.63
2018-08-25T08:43:30.991Z,18.67
2018-08-25T08:44:45.304Z,18.58
2018-08-25T08:45:59.125Z,18.6
2018-08-25T08:47:12.731Z,18.36
2018-08-25T08:48:27.294Z,18.51
2018-08-25T08:49:53.915Z,18.67
2018-08-25T08:51:07.654Z,18.63
2018-08-25T08:52:21.492Z,18.67
2018-08-25T08:53:35.355Z,18.91
2018-08-25T08:54:50.057Z,18.88
2018-08-25T08:56:04.151Z,18.85
2018-08-25T08:57:18.476Z,18.67
2018-08-25T08:58:32.745Z,18.89
2018-08-25T08:59:46.821Z,18.91
2018-08-25T09:01:00.896Z,18.78
2018-08-25T09:02:14.548Z,18.66
2018-08-25T09:03:28.019Z,18.6
2018-08-25T09:04:42.207Z,18.41
2018-08-25T09:05:56.539Z,18.26
2018-08-25T09:07:10.935Z,18.26
2018-08-25T09:08:25.322Z,18.27
2018-08-25T09:09:39.610Z,18.3
2018-08-25T09:10:53.206Z,18.21
2018-08-25T09:12:07.509Z,18.11
2018-08-25T09:13:21.835Z,18.21
2018-08-25T09:14:36.376Z,18.37
2018-08-25T09:16:04.884Z,18.23
2018-08-25T09:17:19.224Z,18.23
2018-08-25T09:18:33.360Z,18.33
2018-08-25T09:19:47.669Z,18.27
2018-08-25T09:21:01.766Z,18.15
2018-08-25T09:22:15.850Z,18.23
2018-08-25T09:23:29.981Z,18.41
2018-08-25T09:24:44.568Z,18.39
2018-08-25T09:25:58.529Z,18.3
2018-08-25T09:27:12.195Z,18.26
2018-08-25T09:28:26.359Z,18.26
2018-08-25T09:29:40.924Z,18.19
2018-08-25T09:30:54.785Z,18.34
2018-08-25T09:32:09.078Z,18.52
2018-08-25T09:33:23.633Z,18.63
2018-08-25T09:34:37.233Z,18.7
2018-08-25T09:35:52.212Z,18.89
2018-08-25T09:37:06.335Z,19.04
2018-08-25T09:38:20.963Z,19.22
2018-08-25T09:39:35.336Z,19.39
2018-08-25T09:40:49.173Z,19.45
2018-08-25T09:42:03.583Z,19.32
2018-08-25T09:43:18.105Z,19.23
2018-08-25T09:44:31.702Z,19.22
2018-08-25T09:45:45.348Z,19.27
2018-08-25T09:46:59.864Z,19.38
2018-08-25T09:48:14.692Z,19.44
2018-08-25T09:49:28.549Z,19.3
2018-08-25T09:50:42.624Z,19.34
2018-08-25T09:51:56.501Z,19.38
2018-08-25T09:53:10.519Z,19.55
2018-08-25T09:54:23.687Z,19.42
2018-08-25T09:55:37.748Z,19.7
2018-08-25T09:56:51.562Z,19.66
2018-08-25T09:58:05.631Z,19.75
2018-08-25T09:59:19.594Z,19.99
2018-08-25T10:00:32.960Z,20.19
2018-08-25T10:01:47.062Z,20.08
2018-08-25T10:03:00.877Z,19.87
2018-08-25T10:04:15.226Z,20.15
2018-08-25T10:05:29.648Z,20.15
2018-08-25T10:06:43.509Z,20.29
2018-08-25T10:07:57.553Z,20.53
2018-08-25T10:09:11.374Z,20.68
2018-08-25T10:10:25.065Z,20.9
2018-08-25T10:11:39.126Z,20.95
2018-08-25T10:13:07.670Z,20.9
2018-08-25T10:14:21.868Z,20.73
2018-08-25T10:15:35.949Z,20.58
2018-08-25T10:16:49.967Z,20.17
2018-08-25T10:18:04.796Z,20.18
2018-08-25T10:19:19.127Z,20.15
2018-08-25T10:20:33.215Z,20.39
2018-08-25T10:21:46.873Z,20.59
2018-08-25T10:23:00.511Z,20.58
2018-08-25T10:24:15.420Z,20.34
2018-08-25T10:25:29.501Z,20.27
2018-08-25T10:26:43.690Z,20.26
2018-08-25T10:27:57.340Z,20.4
2018-08-25T10:29:11.395Z,20.26
2018-08-25T10:30:25.557Z,20.27
2018-08-25T10:31:39.641Z,20.42
2018-08-25T10:32:53.569Z,20.44
2018-08-25T10:34:08.203Z,19.93
2018-08-25T10:35:22.877Z,19.71
2018-08-25T10:36:36.883Z,19.53
2018-08-25T10:37:51.282Z,19.63
2018-08-25T10:39:05.181Z,19.66
2018-08-25T10:40:19.272Z,19.74
2018-08-25T10:41:33.213Z,19.72
2018-08-25T10:42:47.054Z,19.75
2018-08-25T10:44:00.934Z,19.96
2018-08-25T10:45:15.293Z,20.07
2018-08-25T10:46:28.937Z,20.04
2018-08-25T10:47:42.714Z,20.11
2018-08-25T10:48:56.835Z,20.19
2018-08-25T10:50:11.371Z,20.27
2018-08-25T10:51:25.561Z,19.99
2018-08-25T10:52:39.215Z,19.93
2018-08-25T10:53:53.335Z,20.02
2018-08-25T10:55:08.238Z,20.17
2018-08-25T10:56:22.680Z,20.39
2018-08-25T10:57:36.327Z,20.18
2018-08-25T10:58:50.438Z,20.08
2018-08-25T11:00:05.125Z,20
2018-08-25T11:01:19.954Z,20.1
2018-08-25T11:02:33.871Z,20.18
2018-08-25T11:03:48.428Z,20.11
2018-08-25T11:05:03.285Z,19.87
2018-08-25T11:06:17.073Z,19.84
2018-08-25T11:07:30.955Z,19.7
2018-08-25T11:08:44.849Z,19.94
2018-08-25T11:09:59.214Z,19.97
2018-08-25T11:11:28.213Z,20.15
2018-08-25T11:12:42.106Z,20.19
2018-08-25T11:15:25.016Z,20.36
2018-08-25T11:16:39.487Z,20.59
2018-08-25T11:17:53.578Z,20.71
2018-08-25T11:19:07.964Z,20.89
2018-08-25T11:20:20.932Z,20.48
2018-08-25T11:21:35.351Z,20.34
2018-08-25T11:22:49.467Z,20.39
2018-08-25T11:24:03.577Z,20.27
2018-08-25T11:25:17.700Z,20.17
2018-08-25T11:26:32.033Z,20.07
2018-08-25T11:27:46.335Z,19.93
2018-08-25T11:29:00.645Z,19.94
2018-08-25T11:30:14.907Z,19.96
2018-08-25T11:31:28.993Z,20.19
2018-08-25T11:32:43.289Z,20.11
2018-08-25T11:33:57.577Z,20.12
2018-08-25T11:35:11.189Z,20.12
2018-08-25T11:36:25.390Z,20.03
2018-08-25T11:37:40.149Z,19.79
2018-08-25T11:38:54.733Z,19.87
2018-08-25T11:40:08.881Z,19.74
2018-08-25T11:41:23.243Z,19.96
2018-08-25T11:42:37.848Z,20.19
2018-08-25T11:43:52.248Z,20.24
2018-08-25T11:45:05.624Z,20.26
2018-08-25T11:46:19.514Z,20.19
2018-08-25T11:47:33.938Z,20.11
2018-08-25T11:48:47.384Z,20.18
2018-08-25T11:50:01.896Z,20
2018-08-25T11:51:15.353Z,20.08
2018-08-25T11:52:29.698Z,20.14
2018-08-25T11:53:44.036Z,19.93
2018-08-25T11:54:58.120Z,19.93
2018-08-25T11:56:12.420Z,19.94
2018-08-25T11:57:26.439Z,20.11
2018-08-25T11:58:41.193Z,20.08
2018-08-25T11:59:55.491Z,20.04
2018-08-25T12:01:09.349Z,20.15
2018-08-25T12:02:23.767Z,20.17
2018-08-25T12:03:52.722Z,20.24
2018-08-25T12:05:06.796Z,20.26
2018-08-25T12:06:20.670Z,20.12
2018-08-25T12:07:34.348Z,20.17
2018-08-25T12:08:48.206Z,19.97
2018-08-25T12:10:02.280Z,20.07
2018-08-25T12:11:16.366Z,20.26
2018-08-25T12:12:30.199Z,20.12
2018-08-25T12:13:44.762Z,20.22
2018-08-25T12:14:59.619Z,20.24
2018-08-25T12:16:14.077Z,20.27
2018-08-25T12:17:28.646Z,20.26
2018-08-25T12:18:42.066Z,20.29
2018-08-25T12:19:56.640Z,20.4
2018-08-25T12:21:11.026Z,20.26
2018-08-25T12:22:24.888Z,20.34
2018-08-25T12:23:38.832Z,20.49
2018-08-25T12:24:52.903Z,20.34
2018-08-25T12:26:06.964Z,20.18
2018-08-25T12:27:21.575Z,20.04
2018-08-25T12:28:35.691Z,20.08
2018-08-25T12:29:50.038Z,20.02
2018-08-25T12:31:04.138Z,19.99
2018-08-25T12:32:18.018Z,19.94
2018-08-25T12:33:32.331Z,19.93
2018-08-25T12:34:46.770Z,19.77
2018-08-25T12:36:01.100Z,19.6
2018-08-25T12:37:15.126Z,19.53
2018-08-25T12:38:29.221Z,19.57
2018-08-25T12:39:43.366Z,19.63
2018-08-25T12:40:56.968Z,19.55
2018-08-25T12:42:11.055Z,19.67
2018-08-25T12:43:25.907Z,19.81
2018-08-25T12:44:40.316Z,19.94
2018-08-25T12:45:54.426Z,19.9
2018-08-25T12:47:08.275Z,19.93
2018-08-25T12:48:22.625Z,20
2018-08-25T12:49:36.730Z,20.04
2018-08-25T12:50:50.838Z,20.07
2018-08-25T12:52:05.001Z,19.89
2018-08-25T12:53:19.394Z,20.1
2018-08-25T12:54:33.490Z,20.18
2018-08-25T12:55:48.283Z,20.21
2018-08-25T12:57:02.363Z,20.37
2018-08-25T12:58:16.012Z,20.53
2018-08-25T12:59:29.752Z,20.49
2018-08-25T13:00:44.094Z,20.68
2018-08-25T13:01:58.684Z,20.52
2018-08-25T13:03:12.555Z,20.71
2018-08-25T13:04:26.219Z,20.7
2018-08-25T13:05:39.834Z,20.71
2018-08-25T13:06:53.608Z,20.67
2018-08-25T13:08:07.938Z,20.7
2018-08-25T13:09:21.359Z,20.86
2018-08-25T13:10:35.686Z,20.96
2018-08-25T13:11:49.564Z,21.26
2018-08-25T13:13:03.529Z,21.28
2018-08-25T13:14:17.758Z,21.38
2018-08-25T13:15:31.926Z,21.28
2018-08-25T13:16:45.759Z,21.05
2018-08-25T13:17:59.929Z,20.92
2018-08-25T13:19:13.827Z,20.82
2018-08-25T13:20:27.936Z,20.75
2018-08-25T13:21:41.823Z,20.83
2018-08-25T13:22:55.225Z,20.74
2018-08-25T13:24:09.604Z,20.7
2018-08-25T13:25:23.725Z,20.68
2018-08-25T13:26:38.077Z,20.4
2018-08-25T13:27:52.403Z,20.32
2018-08-25T13:29:06.306Z,20.17
2018-08-25T13:30:20.437Z,20.12
2018-08-25T13:31:34.611Z,20.21
2018-08-25T13:32:48.484Z,20.46
2018-08-25T13:34:02.576Z,20.59
2018-08-25T13:35:16.432Z,20.58
2018-08-25T13:36:30.278Z,20.58
2018-08-25T13:37:44.606Z,20.64
2018-08-25T13:38:58.771Z,20.63
2018-08-25T13:40:13.067Z,20.78
2018-08-25T13:41:27.060Z,20.88
2018-08-25T13:42:41.213Z,20.89
2018-08-25T13:43:55.566Z,21.04
2018-08-25T13:45:09.941Z,21.23
2018-08-25T13:46:23.882Z,21.08
2018-08-25T13:47:38.120Z,21.01
2018-08-25T13:48:52.470Z,21.08
2018-08-25T13:50:06.941Z,21.03
2018-08-25T13:51:21.004Z,21.05
2018-08-25T13:52:35.652Z,20.89
2018-08-25T13:53:49.615Z,20.83
2018-08-25T13:55:03.232Z,20.68
2018-08-25T13:56:17.801Z,20.73
2018-08-25T13:57:31.186Z,20.73
2018-08-25T13:58:45.071Z,20.89
2018-08-25T13:59:58.748Z,20.77
2018-08-25T14:01:13.118Z,20.89
2018-08-25T14:02:27.255Z,20.88
2018-08-25T14:03:40.732Z,20.96
2018-08-25T14:04:55.379Z,21.03
2018-08-25T14:06:09.951Z,20.89
2018-08-25T14:07:24.629Z,21.01
2018-08-25T14:08:38.966Z,20.92
2018-08-25T14:09:53.502Z,21.01
2018-08-25T14:11:08.298Z,21.23
2018-08-25T14:12:22.155Z,21.17
2018-08-25T14:13:36.443Z,20.95
2018-08-25T14:14:50.324Z,20.85
2018-08-25T14:16:04.724Z,20.89
2018-08-25T14:17:19.350Z,20.86
2018-08-25T14:18:33.227Z,20.8
2018-08-25T14:19:47.810Z,20.95
2018-08-25T14:21:01.923Z,20.83
2018-08-25T14:22:15.789Z,20.4
2018-08-25T14:23:30.182Z,20.42
2018-08-25T14:24:44.282Z,20.48
2018-08-25T14:25:58.578Z,20.39
2018-08-25T14:27:13.157Z,20.33
2018-08-25T14:28:26.819Z,20.34
2018-08-25T14:29:41.394Z,20.37
2018-08-25T14:30:55.504Z,20.5
2018-08-25T14:32:09.113Z,20.67
2018-08-25T14:33:23.412Z,20.6
2018-08-25T14:34:37.056Z,20.48
2018-08-25T14:35:50.916Z,20.26
2018-08-25T14:37:04.537Z,20.44
2018-08-25T14:38:19.337Z,20.59
2018-08-25T14:39:32.979Z,20.86
2018-08-25T14:40:47.522Z,20.92
2018-08-25T14:42:01.851Z,20.92
2018-08-25T14:43:16.427Z,20.83
2018-08-25T14:44:30.973Z,20.77
2018-08-25T14:45:44.575Z,20.92
2018-08-25T14:46:59.170Z,20.85
2018-08-25T14:48:13.020Z,20.88
2018-08-25T14:49:26.929Z,20.98
2018-08-25T14:50:55.706Z,21
2018-08-25T14:52:09.575Z,20.98
2018-08-25T14:53:23.668Z,21.03
2018-08-25T14:54:37.720Z,21.17
2018-08-25T14:55:52.062Z,21.17
2018-08-25T14:57:05.900Z,21.26
2018-08-25T14:58:20.516Z,21.37
2018-08-25T14:59:34.128Z,21.17
2018-08-25T15:00:48.733Z,21.08
2018-08-25T15:02:03.556Z,20.9
2018-08-25T15:03:32.066Z,20.73
2018-08-25T15:04:46.383Z,20.34
2018-08-25T15:06:00.476Z,20.29
2018-08-25T15:07:14.689Z,20.27
2018-08-25T15:08:29.258Z,20.52
2018-08-25T15:09:43.100Z,20.56
2018-08-25T15:10:57.231Z,20.58
2018-08-25T15:12:11.082Z,20.59
2018-08-25T15:13:24.999Z,20.59
2018-08-25T15:14:38.906Z,20.64
2018-08-25T15:15:53.252Z,20.71
2018-08-25T15:17:07.129Z,20.88
2018-08-25T15:18:21.698Z,20.85
2018-08-25T15:19:35.779Z,20.78
2018-08-25T15:20:49.855Z,20.85
2018-08-25T15:22:18.496Z,20.82
2018-08-25T15:23:32.837Z,20.82
2018-08-25T15:24:46.899Z,20.8
2018-08-25T15:26:01.003Z,20.88
2018-08-25T15:27:17.434Z,20.93
2018-08-25T15:28:31.665Z,20.95
2018-08-25T15:29:45.285Z,21.05
2018-08-25T15:30:59.971Z,21.04
2018-08-25T15:32:13.765Z,21.07
2018-08-25T15:33:27.634Z,21.05
2018-08-25T15:34:41.504Z,20.86
2018-08-25T15:35:55.876Z,20.77
2018-08-25T15:37:09.475Z,20.83
2018-08-25T15:38:22.877Z,20.92
2018-08-25T15:39:36.984Z,20.95
2018-08-25T15:40:51.399Z,20.88
2018-08-25T15:42:05.988Z,20.73
2018-08-25T15:43:20.376Z,20.86
2018-08-25T15:44:34.697Z,21.05
2018-08-25T15:45:49.301Z,21.1
2018-08-25T15:47:03.517Z,21.1
2018-08-25T15:48:17.364Z,21.05
2018-08-25T15:49:31.994Z,21.1
2018-08-25T15:50:46.161Z,20.89
2018-08-25T15:52:00.113Z,20.89
2018-08-25T15:53:14.606Z,20.83
2018-08-25T15:54:28.798Z,20.86
2018-08-25T15:55:42.873Z,20.88
2018-08-25T15:56:56.525Z,20.88
2018-08-25T15:58:10.555Z,20.98
2018-08-25T15:59:24.454Z,20.93
2018-08-25T16:00:38.566Z,20.8
2018-08-25T16:01:52.881Z,20.8
2018-08-25T16:03:06.764Z,20.59